sensor_id;sensor_type;location;lat;lon;timestamp;temperature;humidity
4501;DHT22;2263;54.654;9.410;2023-02-22T00:02:28;7.90;99.50
4501;DHT22;2263;54.654;9.410;2023-02-22T00:05:13;7.90;99.50
4501;DHT22;2263;54.654;9.410;2023-02-22T00:07:59;7.90;99.50
4501;DHT22;2263;54.654;9.410;2023-02-22T00:10:44;7.90;99.50
4501;DHT22;2263;54.654;9.410;2023-02-22T00:13:29;7.90;99.50
4501;DHT22;2263;54.654;9.410;2023-02-22T00:16:20;7.90;99.60
4501;DHT22;2263;54.654;9.410;2023-02-22T00:19:04;7.90;99.60
4501;DHT22;2263;54.654;9.410;2023-02-22T00:21:52;7.80;99.50
4501;DHT22;2263;54.654;9.410;2023-02-22T00:24:36;7.90;99.60
4501;DHT22;2263;54.654;9.410;2023-02-22T00:27:21;7.80;99.50
4501;DHT22;2263;54.654;9.410;2023-02-22T00:30:06;7.80;99.50
4501;DHT22;2263;54.654;9.410;2023-02-22T00:32:54;7.80;99.60
4501;DHT22;2263;54.654;9.410;2023-02-22T00:35:39;7.80;99.60
4501;DHT22;2263;54.654;9.410;2023-02-22T00:38:24;7.80;99.60
4501;DHT22;2263;54.654;9.410;2023-02-22T00:41:09;7.80;99.60
4501;DHT22;2263;54.654;9.410;2023-02-22T00:43:53;7.80;99.60
4501;DHT22;2263;54.654;9.410;2023-02-22T00:46:37;7.80;99.60
4501;DHT22;2263;54.654;9.410;2023-02-22T00:49:22;7.80;99.60
4501;DHT22;2263;54.654;9.410;2023-02-22T00:52:07;7.80;99.60
4501;DHT22;2263;54.654;9.410;2023-02-22T00:54:53;7.80;99.60
4501;DHT22;2263;54.654;9.410;2023-02-22T00:57:38;7.80;99.60
4501;DHT22;2263;54.654;9.410;2023-02-22T01:00:47;7.80;99.70
4501;DHT22;2263;54.654;9.410;2023-02-22T01:03:30;7.80;99.70
4501;DHT22;2263;54.654;9.410;2023-02-22T01:06:15;7.80;99.70
4501;DHT22;2263;54.654;9.410;2023-02-22T01:09:00;7.70;99.70
4501;DHT22;2263;54.654;9.410;2023-02-22T01:11:55;7.70;99.70
4501;DHT22;2263;54.654;9.410;2023-02-22T01:14:40;7.70;99.70
4501;DHT22;2263;54.654;9.410;2023-02-22T01:17:25;7.70;99.70
4501;DHT22;2263;54.654;9.410;2023-02-22T01:20:10;7.70;99.70
4501;DHT22;2263;54.654;9.410;2023-02-22T01:22:59;7.70;99.70
4501;DHT22;2263;54.654;9.410;2023-02-22T01:25:44;7.70;99.70
4501;DHT22;2263;54.654;9.410;2023-02-22T01:28:29;7.70;99.70
4501;DHT22;2263;54.654;9.410;2023-02-22T01:31:13;7.70;99.80
4501;DHT22;2263;54.654;9.410;2023-02-22T01:33:58;7.70;99.80
4501;DHT22;2263;54.654;9.410;2023-02-22T01:36:42;7.70;99.80
4501;DHT22;2263;54.654;9.410;2023-02-22T01:39:27;7.70;99.80
4501;DHT22;2263;54.654;9.410;2023-02-22T01:42:12;7.70;99.80
4501;DHT22;2263;54.654;9.410;2023-02-22T01:51:17;7.70;99.80
4501;DHT22;2263;54.654;9.410;2023-02-22T01:54:15;7.70;99.90
4501;DHT22;2263;54.654;9.410;2023-02-22T01:57:11;7.70;99.90
4501;DHT22;2263;54.654;9.410;2023-02-22T02:00:02;7.60;99.80
4501;DHT22;2263;54.654;9.410;2023-02-22T02:03:00;7.70;99.80
4501;DHT22;2263;54.654;9.410;2023-02-22T02:05:46;7.70;99.90
4501;DHT22;2263;54.654;9.410;2023-02-22T02:11:32;7.60;99.80
4501;DHT22;2263;54.654;9.410;2023-02-22T02:14:17;7.60;99.90
4501;DHT22;2263;54.654;9.410;2023-02-22T02:17:01;7.60;99.90
4501;DHT22;2263;54.654;9.410;2023-02-22T02:31:55;7.60;99.90
4501;DHT22;2263;54.654;9.410;2023-02-22T02:47:02;7.60;99.90
4501;DHT22;2263;54.654;9.410;2023-02-22T02:49:54;7.60;99.90
4501;DHT22;2263;54.654;9.410;2023-02-22T02:52:41;7.60;99.90
4501;DHT22;2263;54.654;9.410;2023-02-22T02:55:29;7.60;99.90
4501;DHT22;2263;54.654;9.410;2023-02-22T02:58:19;7.60;99.90
4501;DHT22;2263;54.654;9.410;2023-02-22T03:01:04;7.60;99.90
4501;DHT22;2263;54.654;9.410;2023-02-22T03:13:47;7.50;99.90
4501;DHT22;2263;54.654;9.410;2023-02-22T03:16:45;7.50;99.90
4501;DHT22;2263;54.654;9.410;2023-02-22T03:22:30;7.50;99.90
4501;DHT22;2263;54.654;9.410;2023-02-22T03:25:29;7.50;99.90
4501;DHT22;2263;54.654;9.410;2023-02-22T03:28:19;7.50;99.90
4501;DHT22;2263;54.654;9.410;2023-02-22T03:31:10;7.50;99.90
4501;DHT22;2263;54.654;9.410;2023-02-22T03:34:03;7.50;99.90
4501;DHT22;2263;54.654;9.410;2023-02-22T03:36:53;7.50;99.90
4501;DHT22;2263;54.654;9.410;2023-02-22T03:39:40;7.50;99.90
4501;DHT22;2263;54.654;9.410;2023-02-22T03:42:33;7.50;99.90
4501;DHT22;2263;54.654;9.410;2023-02-22T03:45:20;7.50;99.90
4501;DHT22;2263;54.654;9.410;2023-02-22T03:51:16;7.50;99.90
4501;DHT22;2263;54.654;9.410;2023-02-22T03:54:02;7.50;99.90
4501;DHT22;2263;54.654;9.410;2023-02-22T03:57:14;7.50;99.90
4501;DHT22;2263;54.654;9.410;2023-02-22T04:00:01;7.50;99.90
4501;DHT22;2263;54.654;9.410;2023-02-22T04:02:45;7.50;99.90
4501;DHT22;2263;54.654;9.410;2023-02-22T04:05:30;7.50;99.90
4501;DHT22;2263;54.654;9.410;2023-02-22T04:08:15;7.50;99.90
4501;DHT22;2263;54.654;9.410;2023-02-22T04:11:00;7.50;99.90
4501;DHT22;2263;54.654;9.410;2023-02-22T04:13:45;7.50;99.90
4501;DHT22;2263;54.654;9.410;2023-02-22T04:16:29;7.50;99.90
4501;DHT22;2263;54.654;9.410;2023-02-22T04:19:13;7.50;99.90
4501;DHT22;2263;54.654;9.410;2023-02-22T04:21:58;7.40;99.90
4501;DHT22;2263;54.654;9.410;2023-02-22T04:24:42;7.50;99.90
4501;DHT22;2263;54.654;9.410;2023-02-22T04:27:27;7.50;99.90
4501;DHT22;2263;54.654;9.410;2023-02-22T04:30:11;7.40;99.90
4501;DHT22;2263;54.654;9.410;2023-02-22T04:32:56;7.40;99.90
4501;DHT22;2263;54.654;9.410;2023-02-22T04:35:41;7.40;99.90
4501;DHT22;2263;54.654;9.410;2023-02-22T04:38:26;7.40;99.90
4501;DHT22;2263;54.654;9.410;2023-02-22T04:41:11;7.40;99.90
4501;DHT22;2263;54.654;9.410;2023-02-22T04:43:55;7.40;99.90
4501;DHT22;2263;54.654;9.410;2023-02-22T04:46:40;7.40;99.90
4501;DHT22;2263;54.654;9.410;2023-02-22T04:49:24;7.40;99.90
4501;DHT22;2263;54.654;9.410;2023-02-22T04:52:09;7.40;99.90
4501;DHT22;2263;54.654;9.410;2023-02-22T04:54:53;7.40;99.90
4501;DHT22;2263;54.654;9.410;2023-02-22T04:57:38;7.40;99.90
4501;DHT22;2263;54.654;9.410;2023-02-22T05:00:22;7.40;99.90
4501;DHT22;2263;54.654;9.410;2023-02-22T05:03:07;7.40;99.90
4501;DHT22;2263;54.654;9.410;2023-02-22T05:05:52;7.40;99.90
4501;DHT22;2263;54.654;9.410;2023-02-22T05:08:36;7.40;99.90
4501;DHT22;2263;54.654;9.410;2023-02-22T05:11:21;7.40;99.90
4501;DHT22;2263;54.654;9.410;2023-02-22T05:14:05;7.40;99.90
4501;DHT22;2263;54.654;9.410;2023-02-22T05:16:57;7.40;99.90
4501;DHT22;2263;54.654;9.410;2023-02-22T05:19:41;7.40;99.90
4501;DHT22;2263;54.654;9.410;2023-02-22T05:22:26;7.30;99.90
4501;DHT22;2263;54.654;9.410;2023-02-22T05:25:11;7.30;99.90
4501;DHT22;2263;54.654;9.410;2023-02-22T05:28:02;7.30;99.90
4501;DHT22;2263;54.654;9.410;2023-02-22T05:30:47;7.30;99.90
4501;DHT22;2263;54.654;9.410;2023-02-22T05:33:31;7.30;99.90
4501;DHT22;2263;54.654;9.410;2023-02-22T05:36:16;7.30;99.90
4501;DHT22;2263;54.654;9.410;2023-02-22T05:39:00;7.30;99.90
4501;DHT22;2263;54.654;9.410;2023-02-22T05:41:45;7.30;99.90
4501;DHT22;2263;54.654;9.410;2023-02-22T05:44:29;7.30;99.90
4501;DHT22;2263;54.654;9.410;2023-02-22T05:47:13;7.30;99.90
4501;DHT22;2263;54.654;9.410;2023-02-22T05:49:58;7.30;99.90
4501;DHT22;2263;54.654;9.410;2023-02-22T05:52:42;7.30;99.90
4501;DHT22;2263;54.654;9.410;2023-02-22T05:55:27;7.30;99.90
4501;DHT22;2263;54.654;9.410;2023-02-22T05:58:11;7.30;99.90
4501;DHT22;2263;54.654;9.410;2023-02-22T06:00:56;7.30;99.90
4501;DHT22;2263;54.654;9.410;2023-02-22T06:03:40;7.30;99.90
4501;DHT22;2263;54.654;9.410;2023-02-22T06:06:25;7.30;99.90
4501;DHT22;2263;54.654;9.410;2023-02-22T06:09:09;7.30;99.90
4501;DHT22;2263;54.654;9.410;2023-02-22T06:11:54;7.30;99.90
4501;DHT22;2263;54.654;9.410;2023-02-22T06:14:39;7.30;99.90
4501;DHT22;2263;54.654;9.410;2023-02-22T06:17:29;7.30;99.90
4501;DHT22;2263;54.654;9.410;2023-02-22T06:20:16;7.30;99.90
4501;DHT22;2263;54.654;9.410;2023-02-22T06:23:01;7.30;99.90
4501;DHT22;2263;54.654;9.410;2023-02-22T06:25:45;7.30;99.90
4501;DHT22;2263;54.654;9.410;2023-02-22T06:28:30;7.30;99.90
4501;DHT22;2263;54.654;9.410;2023-02-22T06:31:14;7.30;99.90
4501;DHT22;2263;54.654;9.410;2023-02-22T06:33:59;7.30;99.90
4501;DHT22;2263;54.654;9.410;2023-02-22T06:36:43;7.30;99.90
4501;DHT22;2263;54.654;9.410;2023-02-22T06:39:28;7.30;99.90
4501;DHT22;2263;54.654;9.410;2023-02-22T06:42:12;7.30;99.90
4501;DHT22;2263;54.654;9.410;2023-02-22T06:44:57;7.30;99.90
4501;DHT22;2263;54.654;9.410;2023-02-22T06:47:41;7.30;99.90
4501;DHT22;2263;54.654;9.410;2023-02-22T06:50:28;7.30;99.90
4501;DHT22;2263;54.654;9.410;2023-02-22T06:53:16;7.30;99.90
4501;DHT22;2263;54.654;9.410;2023-02-22T06:56:01;7.30;99.90
4501;DHT22;2263;54.654;9.410;2023-02-22T06:58:45;7.30;99.90
4501;DHT22;2263;54.654;9.410;2023-02-22T07:01:30;7.30;99.90
4501;DHT22;2263;54.654;9.410;2023-02-22T07:04:15;7.30;99.90
4501;DHT22;2263;54.654;9.410;2023-02-22T07:07:00;7.30;99.90
4501;DHT22;2263;54.654;9.410;2023-02-22T07:09:45;7.30;99.90
4501;DHT22;2263;54.654;9.410;2023-02-22T07:12:30;7.30;99.90
4501;DHT22;2263;54.654;9.410;2023-02-22T07:15:17;7.30;99.90
4501;DHT22;2263;54.654;9.410;2023-02-22T07:18:03;7.30;99.90
4501;DHT22;2263;54.654;9.410;2023-02-22T07:20:48;7.30;99.90
4501;DHT22;2263;54.654;9.410;2023-02-22T07:23:33;7.30;99.90
4501;DHT22;2263;54.654;9.410;2023-02-22T07:26:17;7.30;99.90
4501;DHT22;2263;54.654;9.410;2023-02-22T07:29:02;7.30;99.90
4501;DHT22;2263;54.654;9.410;2023-02-22T07:31:46;7.30;99.90
4501;DHT22;2263;54.654;9.410;2023-02-22T07:34:31;7.20;99.90
4501;DHT22;2263;54.654;9.410;2023-02-22T07:37:15;7.30;99.90
4501;DHT22;2263;54.654;9.410;2023-02-22T07:40:00;7.30;99.90
4501;DHT22;2263;54.654;9.410;2023-02-22T07:43:03;7.30;99.90
4501;DHT22;2263;54.654;9.410;2023-02-22T07:45:49;7.30;99.90
4501;DHT22;2263;54.654;9.410;2023-02-22T07:48:34;7.30;99.90
4501;DHT22;2263;54.654;9.410;2023-02-22T07:51:18;7.30;99.90
4501;DHT22;2263;54.654;9.410;2023-02-22T07:54:03;7.30;99.90
4501;DHT22;2263;54.654;9.410;2023-02-22T07:56:48;7.30;99.90
4501;DHT22;2263;54.654;9.410;2023-02-22T07:59:33;7.30;99.90
4501;DHT22;2263;54.654;9.410;2023-02-22T08:02:18;7.30;99.90
4501;DHT22;2263;54.654;9.410;2023-02-22T08:05:05;7.20;99.90
4501;DHT22;2263;54.654;9.410;2023-02-22T08:07:49;7.30;99.90
4501;DHT22;2263;54.654;9.410;2023-02-22T08:10:35;7.30;99.90
4501;DHT22;2263;54.654;9.410;2023-02-22T08:13:20;7.30;99.90
4501;DHT22;2263;54.654;9.410;2023-02-22T08:16:05;7.30;99.90
4501;DHT22;2263;54.654;9.410;2023-02-22T08:18:50;7.30;99.90
4501;DHT22;2263;54.654;9.410;2023-02-22T08:21:34;7.30;99.90
4501;DHT22;2263;54.654;9.410;2023-02-22T08:24:22;7.30;99.90
4501;DHT22;2263;54.654;9.410;2023-02-22T08:27:06;7.30;99.90
4501;DHT22;2263;54.654;9.410;2023-02-22T08:29:52;7.30;99.90
4501;DHT22;2263;54.654;9.410;2023-02-22T08:32:40;7.30;99.90
4501;DHT22;2263;54.654;9.410;2023-02-22T08:35:24;7.30;99.90
4501;DHT22;2263;54.654;9.410;2023-02-22T08:38:24;7.30;99.90
4501;DHT22;2263;54.654;9.410;2023-02-22T08:41:09;7.30;99.90
4501;DHT22;2263;54.654;9.410;2023-02-22T08:43:53;7.30;99.90
4501;DHT22;2263;54.654;9.410;2023-02-22T08:46:38;7.30;99.90
4501;DHT22;2263;54.654;9.410;2023-02-22T08:49:23;7.30;99.90
4501;DHT22;2263;54.654;9.410;2023-02-22T08:52:08;7.30;99.90
4501;DHT22;2263;54.654;9.410;2023-02-22T08:54:52;7.30;99.90
4501;DHT22;2263;54.654;9.410;2023-02-22T08:57:37;7.30;99.90
4501;DHT22;2263;54.654;9.410;2023-02-22T09:00:22;7.30;99.90
4501;DHT22;2263;54.654;9.410;2023-02-22T09:03:11;7.30;99.90
4501;DHT22;2263;54.654;9.410;2023-02-22T09:05:56;7.40;99.90
4501;DHT22;2263;54.654;9.410;2023-02-22T09:08:42;7.30;99.90
4501;DHT22;2263;54.654;9.410;2023-02-22T09:11:26;7.40;99.90
4501;DHT22;2263;54.654;9.410;2023-02-22T09:14:11;7.30;99.90
4501;DHT22;2263;54.654;9.410;2023-02-22T09:16:57;7.40;99.90
4501;DHT22;2263;54.654;9.410;2023-02-22T09:19:41;7.30;99.90
4501;DHT22;2263;54.654;9.410;2023-02-22T09:22:26;7.40;99.90
4501;DHT22;2263;54.654;9.410;2023-02-22T09:25:11;7.40;99.90
4501;DHT22;2263;54.654;9.410;2023-02-22T09:27:55;7.40;99.90
4501;DHT22;2263;54.654;9.410;2023-02-22T09:30:41;7.40;99.90
4501;DHT22;2263;54.654;9.410;2023-02-22T09:33:26;7.40;99.90
4501;DHT22;2263;54.654;9.410;2023-02-22T09:36:10;7.30;99.90
4501;DHT22;2263;54.654;9.410;2023-02-22T09:38:55;7.40;99.90
4501;DHT22;2263;54.654;9.410;2023-02-22T09:42:05;7.40;99.90
4501;DHT22;2263;54.654;9.410;2023-02-22T09:47:47;7.40;99.90
4501;DHT22;2263;54.654;9.410;2023-02-22T09:50:38;7.40;99.90
4501;DHT22;2263;54.654;9.410;2023-02-22T09:53:31;7.40;99.90
4501;DHT22;2263;54.654;9.410;2023-02-22T09:56:19;7.40;99.90
4501;DHT22;2263;54.654;9.410;2023-02-22T09:59:06;7.40;99.90
4501;DHT22;2263;54.654;9.410;2023-02-22T10:02:17;7.40;99.90
4501;DHT22;2263;54.654;9.410;2023-02-22T10:08:03;7.40;99.90
4501;DHT22;2263;54.654;9.410;2023-02-22T10:11:02;7.40;99.90
4501;DHT22;2263;54.654;9.410;2023-02-22T10:17:38;7.40;99.90
4501;DHT22;2263;54.654;9.410;2023-02-22T10:23:40;7.40;99.90
4501;DHT22;2263;54.654;9.410;2023-02-22T10:26:29;7.40;99.90
4501;DHT22;2263;54.654;9.410;2023-02-22T10:32:19;7.40;99.90
4501;DHT22;2263;54.654;9.410;2023-02-22T10:35:15;7.40;99.90
4501;DHT22;2263;54.654;9.410;2023-02-22T10:38:22;7.40;99.90
4501;DHT22;2263;54.654;9.410;2023-02-22T10:43:52;7.50;99.90
4501;DHT22;2263;54.654;9.410;2023-02-22T10:46:37;7.50;99.90
4501;DHT22;2263;54.654;9.410;2023-02-22T10:49:23;7.50;99.90
4501;DHT22;2263;54.654;9.410;2023-02-22T10:52:31;7.50;99.90
4501;DHT22;2263;54.654;9.410;2023-02-22T10:55:17;7.50;99.90
4501;DHT22;2263;54.654;9.410;2023-02-22T10:58:05;7.50;99.90
4501;DHT22;2263;54.654;9.410;2023-02-22T11:00:50;7.50;99.90
4501;DHT22;2263;54.654;9.410;2023-02-22T11:03:34;7.50;99.90
4501;DHT22;2263;54.654;9.410;2023-02-22T11:06:20;7.50;99.90
4501;DHT22;2263;54.654;9.410;2023-02-22T11:09:12;7.50;99.90
4501;DHT22;2263;54.654;9.410;2023-02-22T11:12:14;7.60;99.90
4501;DHT22;2263;54.654;9.410;2023-02-22T11:18:02;7.60;99.90
4501;DHT22;2263;54.654;9.410;2023-02-22T11:20:47;7.60;99.90
4501;DHT22;2263;54.654;9.410;2023-02-22T11:23:32;7.60;99.90
4501;DHT22;2263;54.654;9.410;2023-02-22T11:26:18;7.60;99.90
4501;DHT22;2263;54.654;9.410;2023-02-22T11:29:10;7.60;99.90
4501;DHT22;2263;54.654;9.410;2023-02-22T11:31:55;7.70;99.90
4501;DHT22;2263;54.654;9.410;2023-02-22T11:34:41;7.70;99.90
4501;DHT22;2263;54.654;9.410;2023-02-22T11:37:33;7.70;99.90
4501;DHT22;2263;54.654;9.410;2023-02-22T11:40:21;7.70;99.90
4501;DHT22;2263;54.654;9.410;2023-02-22T11:43:08;7.70;99.90
4501;DHT22;2263;54.654;9.410;2023-02-22T11:46:04;7.70;99.90
4501;DHT22;2263;54.654;9.410;2023-02-22T11:49:04;7.70;99.90
4501;DHT22;2263;54.654;9.410;2023-02-22T11:52:41;7.80;99.90
4501;DHT22;2263;54.654;9.410;2023-02-22T11:58:34;7.80;99.90
4501;DHT22;2263;54.654;9.410;2023-02-22T12:01:30;7.80;99.90
4501;DHT22;2263;54.654;9.410;2023-02-22T12:19:38;7.80;99.90
4501;DHT22;2263;54.654;9.410;2023-02-22T12:22:38;7.80;99.90
4501;DHT22;2263;54.654;9.410;2023-02-22T12:25:36;7.80;99.90
4501;DHT22;2263;54.654;9.410;2023-02-22T12:28:47;7.80;99.90
4501;DHT22;2263;54.654;9.410;2023-02-22T12:31:44;7.80;99.90
4501;DHT22;2263;54.654;9.410;2023-02-22T12:34:40;7.90;99.90
4501;DHT22;2263;54.654;9.410;2023-02-22T12:37:31;7.90;99.90
4501;DHT22;2263;54.654;9.410;2023-02-22T12:43:38;7.90;99.90
4501;DHT22;2263;54.654;9.410;2023-02-22T12:49:20;7.90;99.90
4501;DHT22;2263;54.654;9.410;2023-02-22T13:00:47;7.90;99.90
4501;DHT22;2263;54.654;9.410;2023-02-22T13:03:38;7.90;99.90
4501;DHT22;2263;54.654;9.410;2023-02-22T13:15:38;8.00;99.90
4501;DHT22;2263;54.654;9.410;2023-02-22T13:18:44;8.00;99.90
4501;DHT22;2263;54.654;9.410;2023-02-22T13:21:51;8.00;99.90
4501;DHT22;2263;54.654;9.410;2023-02-22T13:25:01;8.00;99.90
4501;DHT22;2263;54.654;9.410;2023-02-22T13:51:46;8.00;99.90
4501;DHT22;2263;54.654;9.410;2023-02-22T13:54:45;8.10;99.90
4501;DHT22;2263;54.654;9.410;2023-02-22T13:57:44;8.10;99.90
4501;DHT22;2263;54.654;9.410;2023-02-22T14:00:46;8.10;99.90
4501;DHT22;2263;54.654;9.410;2023-02-22T14:03:37;8.10;99.90
4501;DHT22;2263;54.654;9.410;2023-02-22T14:06:43;8.10;99.90
4501;DHT22;2263;54.654;9.410;2023-02-22T14:09:56;8.10;99.90
4501;DHT22;2263;54.654;9.410;2023-02-22T14:12:47;8.10;99.90
4501;DHT22;2263;54.654;9.410;2023-02-22T14:15:32;8.10;99.90
4501;DHT22;2263;54.654;9.410;2023-02-22T14:18:17;8.10;99.90
4501;DHT22;2263;54.654;9.410;2023-02-22T14:23:54;8.10;99.90
4501;DHT22;2263;54.654;9.410;2023-02-22T14:26:43;8.20;99.90
4501;DHT22;2263;54.654;9.410;2023-02-22T14:29:37;8.20;99.90
4501;DHT22;2263;54.654;9.410;2023-02-22T14:32:33;8.20;99.90
4501;DHT22;2263;54.654;9.410;2023-02-22T14:35:19;8.20;99.90
4501;DHT22;2263;54.654;9.410;2023-02-22T14:38:15;8.20;99.90
4501;DHT22;2263;54.654;9.410;2023-02-22T14:41:02;8.20;99.90
4501;DHT22;2263;54.654;9.410;2023-02-22T14:43:47;8.20;99.90
4501;DHT22;2263;54.654;9.410;2023-02-22T14:46:35;8.20;99.90
4501;DHT22;2263;54.654;9.410;2023-02-22T14:49:26;8.20;99.90
4501;DHT22;2263;54.654;9.410;2023-02-22T14:52:39;8.20;99.90
4501;DHT22;2263;54.654;9.410;2023-02-22T14:55:26;8.20;99.90
4501;DHT22;2263;54.654;9.410;2023-02-22T14:58:17;8.20;99.90
4501;DHT22;2263;54.654;9.410;2023-02-22T15:01:22;8.20;99.90
4501;DHT22;2263;54.654;9.410;2023-02-22T15:04:27;8.20;99.90
4501;DHT22;2263;54.654;9.410;2023-02-22T15:07:25;8.20;99.90
4501;DHT22;2263;54.654;9.410;2023-02-22T15:13:05;8.60;99.90
4501;DHT22;2263;54.654;9.410;2023-02-22T15:15:58;8.80;99.90
4501;DHT22;2263;54.654;9.410;2023-02-22T15:18:46;8.90;99.90
4501;DHT22;2263;54.654;9.410;2023-02-22T15:21:31;9.10;99.90
4501;DHT22;2263;54.654;9.410;2023-02-22T15:24:26;9.10;99.90
4501;DHT22;2263;54.654;9.410;2023-02-22T15:27:16;9.20;99.90
4501;DHT22;2263;54.654;9.410;2023-02-22T15:30:15;9.20;99.90
4501;DHT22;2263;54.654;9.410;2023-02-22T15:33:12;9.20;99.90
4501;DHT22;2263;54.654;9.410;2023-02-22T15:35:58;9.30;99.90
4501;DHT22;2263;54.654;9.410;2023-02-22T15:38:50;9.30;99.90
4501;DHT22;2263;54.654;9.410;2023-02-22T15:41:35;9.30;99.90
4501;DHT22;2263;54.654;9.410;2023-02-22T15:44:19;9.30;99.90
4501;DHT22;2263;54.654;9.410;2023-02-22T15:47:04;9.30;99.90
4501;DHT22;2263;54.654;9.410;2023-02-22T15:50:27;9.30;99.90
4501;DHT22;2263;54.654;9.410;2023-02-22T15:53:24;9.30;99.90
4501;DHT22;2263;54.654;9.410;2023-02-22T15:56:15;9.40;99.90
4501;DHT22;2263;54.654;9.410;2023-02-22T15:59:16;9.30;99.90
4501;DHT22;2263;54.654;9.410;2023-02-22T16:02:01;9.40;99.90
4501;DHT22;2263;54.654;9.410;2023-02-22T16:04:45;9.40;99.90
4501;DHT22;2263;54.654;9.410;2023-02-22T16:07:30;9.40;99.90
4501;DHT22;2263;54.654;9.410;2023-02-22T16:10:35;9.40;99.90
4501;DHT22;2263;54.654;9.410;2023-02-22T16:13:25;9.40;99.90
4501;DHT22;2263;54.654;9.410;2023-02-22T16:19:34;9.40;99.90
4501;DHT22;2263;54.654;9.410;2023-02-22T16:22:32;9.30;99.90
4501;DHT22;2263;54.654;9.410;2023-02-22T16:28:25;9.30;99.90
4501;DHT22;2263;54.654;9.410;2023-02-22T16:31:10;9.40;99.90
4501;DHT22;2263;54.654;9.410;2023-02-22T16:33:54;9.40;99.90
4501;DHT22;2263;54.654;9.410;2023-02-22T16:39:29;9.30;99.90
4501;DHT22;2263;54.654;9.410;2023-02-22T16:42:14;9.40;99.90
4501;DHT22;2263;54.654;9.410;2023-02-22T16:45:03;9.30;99.90
4501;DHT22;2263;54.654;9.410;2023-02-22T16:47:48;9.40;99.90
4501;DHT22;2263;54.654;9.410;2023-02-22T16:50:36;9.30;99.90
4501;DHT22;2263;54.654;9.410;2023-02-22T16:53:23;9.30;99.90
4501;DHT22;2263;54.654;9.410;2023-02-22T16:56:09;9.30;99.90
4501;DHT22;2263;54.654;9.410;2023-02-22T16:58:55;9.40;99.90
4501;DHT22;2263;54.654;9.410;2023-02-22T17:01:41;9.40;99.90
4501;DHT22;2263;54.654;9.410;2023-02-22T17:04:26;9.30;99.90
4501;DHT22;2263;54.654;9.410;2023-02-22T17:07:12;9.30;99.90
4501;DHT22;2263;54.654;9.410;2023-02-22T17:09:56;9.30;99.90
4501;DHT22;2263;54.654;9.410;2023-02-22T17:12:45;9.30;99.90
4501;DHT22;2263;54.654;9.410;2023-02-22T17:15:32;9.30;99.90
4501;DHT22;2263;54.654;9.410;2023-02-22T17:18:18;9.30;99.90
4501;DHT22;2263;54.654;9.410;2023-02-22T17:21:08;9.30;99.90
4501;DHT22;2263;54.654;9.410;2023-02-22T17:23:53;9.30;99.90
4501;DHT22;2263;54.654;9.410;2023-02-22T17:26:38;9.30;99.90
4501;DHT22;2263;54.654;9.410;2023-02-22T17:29:23;9.20;99.90
4501;DHT22;2263;54.654;9.410;2023-02-22T17:32:07;9.30;99.90
4501;DHT22;2263;54.654;9.410;2023-02-22T17:34:52;9.30;99.90
4501;DHT22;2263;54.654;9.410;2023-02-22T17:37:36;9.30;99.90
4501;DHT22;2263;54.654;9.410;2023-02-22T17:40:22;9.20;99.90
4501;DHT22;2263;54.654;9.410;2023-02-22T17:43:06;9.20;99.90
4501;DHT22;2263;54.654;9.410;2023-02-22T17:45:52;9.20;99.90
4501;DHT22;2263;54.654;9.410;2023-02-22T17:48:37;9.20;99.90
4501;DHT22;2263;54.654;9.410;2023-02-22T17:51:23;9.20;99.90
4501;DHT22;2263;54.654;9.410;2023-02-22T17:54:08;9.20;99.90
4501;DHT22;2263;54.654;9.410;2023-02-22T17:56:52;9.20;99.90
4501;DHT22;2263;54.654;9.410;2023-02-22T17:59:37;9.20;99.90
4501;DHT22;2263;54.654;9.410;2023-02-22T18:02:21;9.10;99.90
4501;DHT22;2263;54.654;9.410;2023-02-22T18:05:06;9.10;99.90
4501;DHT22;2263;54.654;9.410;2023-02-22T18:07:51;9.10;99.90
4501;DHT22;2263;54.654;9.410;2023-02-22T18:10:35;9.10;99.90
4501;DHT22;2263;54.654;9.410;2023-02-22T18:13:23;9.10;99.90
4501;DHT22;2263;54.654;9.410;2023-02-22T18:16:08;9.10;99.90
4501;DHT22;2263;54.654;9.410;2023-02-22T18:18:54;9.10;99.90
4501;DHT22;2263;54.654;9.410;2023-02-22T18:21:39;9.10;99.90
4501;DHT22;2263;54.654;9.410;2023-02-22T18:24:24;9.10;99.90
4501;DHT22;2263;54.654;9.410;2023-02-22T18:27:08;9.10;99.90
4501;DHT22;2263;54.654;9.410;2023-02-22T18:29:55;9.10;99.90
4501;DHT22;2263;54.654;9.410;2023-02-22T18:32:39;9.10;99.90
4501;DHT22;2263;54.654;9.410;2023-02-22T18:35:24;9.10;99.90
4501;DHT22;2263;54.654;9.410;2023-02-22T18:38:09;9.10;99.90
4501;DHT22;2263;54.654;9.410;2023-02-22T18:41:02;9.10;99.90
4501;DHT22;2263;54.654;9.410;2023-02-22T18:43:46;9.10;99.90
4501;DHT22;2263;54.654;9.410;2023-02-22T18:46:31;9.10;99.90
4501;DHT22;2263;54.654;9.410;2023-02-22T18:49:15;9.10;99.90
4501;DHT22;2263;54.654;9.410;2023-02-22T18:52:00;9.10;99.90
4501;DHT22;2263;54.654;9.410;2023-02-22T18:54:44;9.00;99.90
4501;DHT22;2263;54.654;9.410;2023-02-22T18:57:28;9.10;99.90
4501;DHT22;2263;54.654;9.410;2023-02-22T19:00:16;9.10;99.90
4501;DHT22;2263;54.654;9.410;2023-02-22T19:03:00;9.00;99.90
4501;DHT22;2263;54.654;9.410;2023-02-22T19:05:45;9.00;99.90
4501;DHT22;2263;54.654;9.410;2023-02-22T19:08:37;9.00;99.90
4501;DHT22;2263;54.654;9.410;2023-02-22T19:11:26;9.00;99.90
4501;DHT22;2263;54.654;9.410;2023-02-22T19:14:10;9.00;99.90
4501;DHT22;2263;54.654;9.410;2023-02-22T19:16:55;9.00;99.90
4501;DHT22;2263;54.654;9.410;2023-02-22T19:19:44;9.00;99.90
4501;DHT22;2263;54.654;9.410;2023-02-22T19:22:28;9.00;99.90
4501;DHT22;2263;54.654;9.410;2023-02-22T19:25:15;8.90;99.90
4501;DHT22;2263;54.654;9.410;2023-02-22T19:28:00;8.90;99.90
4501;DHT22;2263;54.654;9.410;2023-02-22T19:30:44;9.00;99.90
4501;DHT22;2263;54.654;9.410;2023-02-22T19:33:29;8.90;99.90
4501;DHT22;2263;54.654;9.410;2023-02-22T19:36:14;8.90;99.90
4501;DHT22;2263;54.654;9.410;2023-02-22T19:38:58;8.90;99.90
4501;DHT22;2263;54.654;9.410;2023-02-22T19:41:46;8.90;99.90
4501;DHT22;2263;54.654;9.410;2023-02-22T19:44:30;8.90;99.90
4501;DHT22;2263;54.654;9.410;2023-02-22T19:47:16;8.90;99.90
4501;DHT22;2263;54.654;9.410;2023-02-22T19:50:00;8.90;99.90
4501;DHT22;2263;54.654;9.410;2023-02-22T19:52:45;8.90;99.90
4501;DHT22;2263;54.654;9.410;2023-02-22T19:55:29;8.90;99.90
4501;DHT22;2263;54.654;9.410;2023-02-22T19:58:15;8.90;99.90
4501;DHT22;2263;54.654;9.410;2023-02-22T20:00:59;8.80;99.90
4501;DHT22;2263;54.654;9.410;2023-02-22T20:03:47;8.90;99.90
4501;DHT22;2263;54.654;9.410;2023-02-22T20:06:39;8.80;99.90
4501;DHT22;2263;54.654;9.410;2023-02-22T20:09:26;8.80;99.90
4501;DHT22;2263;54.654;9.410;2023-02-22T20:12:12;8.80;99.90
4501;DHT22;2263;54.654;9.410;2023-02-22T20:14:57;8.80;99.90
4501;DHT22;2263;54.654;9.410;2023-02-22T20:17:41;8.80;99.90
4501;DHT22;2263;54.654;9.410;2023-02-22T20:20:28;8.80;99.90
4501;DHT22;2263;54.654;9.410;2023-02-22T20:23:13;8.80;99.90
4501;DHT22;2263;54.654;9.410;2023-02-22T20:25:58;8.80;99.90
4501;DHT22;2263;54.654;9.410;2023-02-22T20:28:42;8.80;99.90
4501;DHT22;2263;54.654;9.410;2023-02-22T20:31:27;8.80;99.90
4501;DHT22;2263;54.654;9.410;2023-02-22T20:34:12;8.80;99.90
4501;DHT22;2263;54.654;9.410;2023-02-22T20:36:57;8.70;99.90
4501;DHT22;2263;54.654;9.410;2023-02-22T20:39:41;8.80;99.90
4501;DHT22;2263;54.654;9.410;2023-02-22T20:42:27;8.70;99.90
4501;DHT22;2263;54.654;9.410;2023-02-22T20:45:11;8.70;99.90
4501;DHT22;2263;54.654;9.410;2023-02-22T20:47:57;8.70;99.90
4501;DHT22;2263;54.654;9.410;2023-02-22T20:50:43;8.70;99.90
4501;DHT22;2263;54.654;9.410;2023-02-22T20:53:27;8.70;99.90
4501;DHT22;2263;54.654;9.410;2023-02-22T20:56:13;8.70;99.90
4501;DHT22;2263;54.654;9.410;2023-02-22T20:59:00;8.70;99.90
4501;DHT22;2263;54.654;9.410;2023-02-22T21:01:45;8.70;99.90
4501;DHT22;2263;54.654;9.410;2023-02-22T21:04:33;8.70;99.90
4501;DHT22;2263;54.654;9.410;2023-02-22T21:07:17;8.70;99.90